• Join FlightAware (Why Join?)
  • Login
  • US Flag 
05:00AM EDT


 

Airport Tracker/Info


-or-


 

Live Flight TrackerFlight Track Log ✈ FSR411 ✈ 12-Jul-2013 ✈ KMLI - KCMI

Flight Track Log - Related Links

Times and Time Zones

All times are in EDT time to prevent confusion due to time zone crossing. See the FSR411 flight status page for this flight to view local times or setup timezone preferences in your user account.

Time Position Orientation Groundspeed Altitude Reporting Facility
EDT Latitude Longitude Course Direction KTS MPH feet Rate Location/Type
08:04PM 41.4119 -90.4156 128° Southeast 224 258 4,100  Level Chicago Center
08:05PM 41.3619 -90.3417 132° Southeast 261 300 7,200 2,700 Climbing Chicago Center
08:06PM 41.3081 -90.2556 130° Southeast 300 345 9,800 2,340 Climbing Chicago Center
08:07PM 41.2431 -90.1492 129° Southeast 366 421 12,100 2,220 Climbing Chicago Center
08:08PM 41.1581 -90.0122 129° Southeast 398 458 14,500 1,380 Climbing Chicago Center
08:09PM 41.1472 -90.0173 128° Southeast  Level Estimated
08:09PM 41.0844 -89.8956 130° Southeast 407 468 15,000  Level Chicago Center
08:10PM 41.0103 -89.7769 130° Southeast 413 475 15,000  Level Chicago Center
08:11PM 40.9358 -89.6597 130° Southeast 413 475 15,000  Level Chicago Center
08:12PM 40.8608 -89.5419 130° Southeast 412 474 15,000  Level Chicago Center
08:13PM 40.7861 -89.4247 130° Southeast 413 475 15,000 -540 Level Chicago Center
08:14PM 40.7119 -89.3106 131° Southeast 408 470 14,000 -1,260 Descending Chicago Center
08:15PM 40.6400 -89.1969 130° Southeast 403 464 12,500 -1,260 Descending Chicago Center
08:16PM 40.5683 -89.0861 130° Southeast 399 459 11,500 -780 Descending Chicago Center
08:17PM 40.4825 -88.9531 130° Southeast 397 457 10,900 -300 Descending Chicago Center
08:19PM 40.4114 -88.8436 130° Southeast 395 455 11,000 -480 Climbing Chicago Center
08:20PM 40.3475 -88.7478 131° Southeast 356 410 10,000 -1,500 Descending Chicago Center
08:21PM 40.2936 -88.6625 130° Southeast 314 361 7,900 -1,740 Descending Chicago Center
08:22PM 40.2444 -88.5811 128° Southeast 294 338 6,400 -1,500 Descending Chicago Center
08:23PM 40.2022 -88.4975 123° Southeast 276 318 4,800 -1,500 Descending Chicago Center
08:24PM 40.1514 -88.4103 127° Southeast 265 305 3,300 -1,080 Descending Chicago Center
08:25PM 40.1156 -88.3719 141° Southeast 230 265 2,600 -720 Descending Chicago Center
08:27PM 40.0388 -88.2778 131° Southeast  Level Estimated
08:34PM 40.0388 -88.2778 131° Southeast  Level Estimated
08:35PM 40.0388 -88.2778 131° Southeast  Level Estimated